Погода Модрикана неделю

Биельина, Босния и Герцеговина

24 - 30 июля
  • 24июля
    Сегодня
    +18°
    +30°
    Ясно и безоблачно
    ВремяПогодаТемператураВлажностьДавлениеВетер, м/сВероятность осадков
    02:00Небольшая облачность, возможен дождь с грозой+22°C89 %752 мм1.1 м/с16 %
    05:00Пасмурно, дожди с грозами+20°C97 %752 мм0.9 м/с45 %
    08:00Небольшая облачность, ливень+22°C90 %752 мм2.0 м/с26 %
    11:00Небольшая облачность+26°C62 %752 мм2.4 м/с19 %
    14:00Ясно и безоблачно+29°C45 %750 мм2.8 м/с14 %
    17:00Облачно с прояснениями+28°C46 %750 мм3.6 м/с12 %
    20:00Облачно с прояснениями+25°C51 %750 мм3.1 м/с5 %
    23:00Ясно и безоблачно+22°C58 %751 мм2.4 м/с2 %
  • 25июля
    Четверг
    +16°
    +27°
    Практически безоблачно
    ВремяПогодаТемператураВлажностьДавлениеВетер, м/сВероятность осадков
    02:00Ясно и безоблачно+20°C64 %751 мм2.0 м/с2 %
    05:00Ясно и безоблачно+19°C69 %751 мм2.0 м/с2 %
    08:00Ясно и безоблачно+21°C62 %751 мм2.6 м/с2 %
    11:00Практически безоблачно+25°C48 %751 мм2.8 м/с3 %
    14:00Практически безоблачно+27°C42 %751 мм3.3 м/с26 %
    17:00Ясно и безоблачно+26°C43 %750 мм3.3 м/с14 %
    20:00Ясно и безоблачно+23°C61 %750 мм1.6 м/с3 %
    23:00Ясно и безоблачно+21°C57 %751 мм2.0 м/с2 %
  • 26июля
    Пятница
    +17°
    +29°
    Ясно и безоблачно
    ВремяПогодаТемператураВлажностьДавлениеВетер, м/сВероятность осадков
    02:00Ясно и безоблачно+18°C66 %751 мм1.6 м/с2 %
    05:00Ясно и безоблачно+17°C76 %751 мм1.6 м/с2 %
    08:00Ясно и безоблачно+21°C62 %751 мм1.8 м/с2 %
    11:00Ясно и безоблачно+26°C42 %752 мм2.0 м/с2 %
    14:00Ясно и безоблачно+29°C34 %752 мм2.3 м/с2 %
    17:00Практически безоблачно+29°C33 %751 мм1.7 м/с2 %
    20:00Ясно и безоблачно+26°C51 %751 мм1.3 м/с2 %
    23:00Ясно и безоблачно+21°C49 %752 мм0.7 м/с2 %
  • 27июля
    Суббота
    +19°
    +34°
    Ясно и безоблачно
    ВремяПогодаТемператураВлажностьДавлениеВетер, м/сВероятность осадков
    02:00Ясно и безоблачно+18°C58 %752 мм1.1 м/с2 %
    05:00Ясно и безоблачно+17°C60 %753 мм0.8 м/с2 %
    08:00Ясно и безоблачно+23°C59 %754 мм1.8 м/с2 %
    11:00Ясно и безоблачно+30°C36 %754 мм2.3 м/с2 %
    14:00Ясно и безоблачно+33°C30 %754 мм2.4 м/с2 %
    17:00Ясно и безоблачно+33°C30 %753 мм2.1 м/с2 %
    20:00Ясно и безоблачно+28°C48 %754 мм2.2 м/с2 %
    23:00Ясно и безоблачно+24°C58 %755 мм2.1 м/с2 %
  • 28июля
    Воскресенье
    +20°
    +36°
    Ясно и безоблачно
    ВремяПогодаТемператураВлажностьДавлениеВетер, м/сВероятность осадков
    02:00Ясно и безоблачно+21°C69 %755 мм2.1 м/с2 %
    05:00Ясно и безоблачно+20°C72 %754 мм1.7 м/с2 %
    08:00Ясно и безоблачно+25°C62 %755 мм1.9 м/с2 %
    11:00Ясно и безоблачно+33°C42 %755 мм2.4 м/с2 %
    14:00Ясно и безоблачно+36°C32 %754 мм2.9 м/с2 %
    17:00Ясно и безоблачно+36°C29 %753 мм1.3 м/с2 %
    20:00Ясно и безоблачно+31°C49 %752 мм2.3 м/с2 %
    23:00Ясно и безоблачно+25°C59 %752 мм0.9 м/с2 %
Мы используем cookies
Соглашаюсь